Time;durP1;ratioP1;P1;durP2;ratioP2;P2;SDS_P1;SDS_P2;PMS_P1;PMS_P2;Temp;Humidity;BMP_temperature;BMP_pressure;BME280_temperature;BME280_humidity;BME280_pressure;Samples;Min_cycle;Max_cycle;Signal;HPM_P1;HPM_P2
2021/05/26 00:00:18;;;;;;;;;117.25;103.75;;;;;17.67;72.66;101666.34;5118930;27;11572;-79
2021/05/26 00:03:13;;;;;;;;;92.00;83.75;;;;;17.69;72.29;101669.59;5119688;27;11538;-79
2021/05/26 00:06:09;;;;;;;;;104.00;90.50;;;;;17.59;72.87;101662.53;5132902;27;11550;-80
2021/05/26 00:09:05;;;;;;;;;102.50;92.00;;;;;17.45;73.48;101662.09;5132659;27;11583;-80
2021/05/26 00:12:01;;;;;;;;;118.50;105.00;;;;;17.26;74.62;101656.34;5119295;27;11513;-80
2021/05/26 00:14:57;;;;;;;;;89.50;72.25;;;;;17.16;74.97;101663.22;5118995;27;11566;-80
2021/05/26 00:17:54;;;;;;;;;119.50;102.25;;;;;17.32;74.83;101668.91;5132823;27;11572;-80
2021/05/26 00:20:52;;;;;;;;;122.75;104.50;;;;;17.34;74.48;101659.00;5119369;27;11568;-80
2021/05/26 00:23:48;;;;;;;;;126.25;102.50;;;;;17.32;74.79;101655.72;5132714;27;11623;-81
2021/05/26 00:26:47;;;;;;;;;112.00;102.25;;;;;17.37;74.93;101661.09;5118933;27;11563;-80
2021/05/26 00:29:44;;;;;;;;;115.00;94.50;;;;;17.43;74.26;101662.47;5118579;27;11534;-81
2021/05/26 00:32:40;;;;;;;;;106.75;94.75;;;;;17.34;74.22;101656.22;5119540;27;11678;-80
2021/05/26 00:35:36;;;;;;;;;114.00;94.25;;;;;17.41;73.95;101656.44;5120330;27;11675;-81
2021/05/26 00:38:34;;;;;;;;;128.50;112.50;;;;;17.30;74.30;101648.88;5132384;27;12307;-81
2021/05/26 00:41:30;;;;;;;;;107.50;98.25;;;;;17.23;74.36;101652.25;5119064;27;11586;-81
2021/05/26 00:44:26;;;;;;;;;128.75;107.25;;;;;17.16;74.47;101643.66;5119259;27;11609;-81
2021/05/26 00:47:38;;;;;;;;;135.00;113.50;;;;;17.08;74.86;101652.97;5132971;27;11544;-81
2021/05/26 00:50:35;;;;;;;;;128.67;105.00;;;;;16.87;75.71;101648.38;5119403;27;11560;-81
2021/05/26 00:53:32;;;;;;;;;139.67;117.33;;;;;16.78;76.08;101650.44;5133317;27;11736;-81
2021/05/26 00:56:28;;;;;;;;;148.00;128.00;;;;;16.97;75.17;101643.47;5119572;27;11644;-81
2021/05/26 00:59:23;;;;;;;;;147.67;120.67;;;;;17.00;74.97;101649.16;5122782;27;8827;-81
2021/05/26 01:02:20;;;;;;;;;146.33;132.67;;;;;16.97;75.06;101647.06;5136226;27;8861;-81
2021/05/26 01:05:17;;;;;;;;;173.00;141.33;;;;;16.91;74.69;101640.91;5123111;27;8833;-81
2021/05/26 01:08:13;;;;;;;;;128.75;109.75;;;;;16.87;74.40;101634.41;5121939;27;8946;-81
2021/05/26 01:11:09;;;;;;;;;104.00;89.25;;;;;17.00;73.42;101637.16;5135962;27;12478;-81
2021/05/26 01:14:05;;;;;;;;;88.00;77.25;;;;;16.82;73.67;101636.63;5121748;27;11552;-81
2021/05/26 01:17:01;;;;;;;;;74.00;57.75;;;;;16.78;73.39;101638.47;5122178;27;11564;-80
2021/05/26 01:19:57;;;;;;;;;69.25;54.25;;;;;16.77;73.29;101634.84;5122087;27;11509;-81
2021/05/26 01:22:57;;;;;;;;;73.75;57.00;;;;;16.93;72.83;101634.97;5122200;27;11479;-81
2021/05/26 01:25:55;;;;;;;;;74.00;57.50;;;;;16.84;72.97;101639.88;5114164;28;11446;-81
2021/05/26 01:28:51;;;;;;;;;68.25;52.75;;;;;16.81;72.82;101640.56;5103974;28;11556;-81
2021/05/26 01:31:46;;;;;;;;;67.75;54.75;;;;;16.68;73.60;101636.94;5105822;28;11475;-82
2021/05/26 01:34:42;;;;;;;;;49.25;42.25;;;;;16.68;73.45;101643.34;5103461;28;11549;-82
2021/05/26 01:37:40;;;;;;;;;45.50;34.25;;;;;16.48;74.24;101635.06;5101600;28;11121;-82
2021/05/26 01:40:36;;;;;;;;;73.25;56.00;;;;;16.39;74.49;101644.34;5115203;28;11426;-82
2021/05/26 01:43:33;;;;;;;;;76.00;60.00;;;;;16.39;74.15;101646.34;5116199;28;11605;-83
2021/05/26 01:46:28;;;;;;;;;77.50;62.00;;;;;16.36;74.41;101645.06;5110677;28;11435;-82
2021/05/26 01:49:24;;;;;;;;;0.00;0.00;;;;;16.62;73.53;101638.31;5121184;28;11642;-82
2021/05/26 01:52:19;;;;;;;;;95.50;88.50;;;;;16.74;73.29;101637.56;5134786;28;12393;-82
2021/05/26 01:55:15;;;;;;;;;99.50;89.50;;;;;16.59;73.29;101639.84;5121017;28;11622;-82
2021/05/26 01:58:13;;;;;;;;;90.50;81.25;;;;;16.58;73.36;101641.00;5120386;28;11601;-82
2021/05/26 02:01:10;;;;;;;;;87.00;78.75;;;;;16.77;72.45;101650.81;5112527;28;11556;-82
2021/05/26 02:04:06;;;;;;;;;86.75;78.00;;;;;16.80;72.48;101655.72;5107186;28;11522;-83
2021/05/26 02:07:11;;;;;;;;;82.75;69.25;;;;;16.79;72.58;101659.66;5108441;28;11554;-83
2021/05/26 02:10:10;;;;;;;;;80.00;65.00;;;;;16.70;72.73;101659.75;5112454;28;11531;-82
2021/05/26 02:13:01;;;;;;;;;68.25;53.75;;;;;16.65;72.96;101677.56;5111166;28;11570;-83
2021/05/26 02:15:58;;;;;;;;;71.25;57.25;;;;;16.66;72.89;101661.63;5134504;27;11567;-83
2021/05/26 02:18:54;;;;;;;;;76.25;61.50;;;;;16.68;73.19;101674.06;5130420;27;11441;-84
2021/05/26 02:21:49;;;;;;;;;81.75;65.75;;;;;16.59;73.20;101680.91;5139914;27;11475;-84
2021/05/26 02:24:46;;;;;;;;;85.75;79.00;;;;;16.58;73.17;101684.88;5139015;27;11525;-84
2021/05/26 02:27:41;;;;;;;;;86.50;82.25;;;;;16.64;73.32;101675.94;5126798;27;11522;-83
2021/05/26 02:30:37;;;;;;;;;95.75;84.25;;;;;16.67;73.50;101677.19;5146135;27;11521;-83
2021/05/26 02:33:33;;;;;;;;;93.00;82.00;;;;;16.64;73.87;101689.09;5147274;27;11563;-83
2021/05/26 02:36:32;;;;;;;;;95.75;84.25;;;;;16.79;73.35;101676.41;5129334;27;11544;-83
2021/05/26 02:39:27;;;;;;;;;91.50;87.75;;;;;16.95;72.90;101680.97;5127850;27;11148;-83
2021/05/26 02:42:26;;;;;;;;;94.25;84.00;;;;;17.09;72.64;101683.38;5129381;27;11539;-83
2021/05/26 02:45:21;;;;;;;;;89.75;83.25;;;;;17.16;72.56;101686.41;5146159;27;11635;-83
2021/05/26 02:48:18;;;;;;;;;95.75;87.50;;;;;17.24;72.34;101681.84;5126496;27;11517;-84
2021/05/26 02:51:13;;;;;;;;;90.75;80.50;;;;;17.35;72.43;101677.41;5124719;27;11518;-83
2021/05/26 02:54:10;;;;;;;;;90.50;86.75;;;;;17.54;72.27;101675.94;5126630;27;11543;-83
2021/05/26 02:57:06;;;;;;;;;82.50;76.50;;;;;17.75;71.46;101683.00;5108542;28;11640;-83
2021/05/26 03:00:05;;;;;;;;;80.00;75.00;;;;;17.85;71.49;101680.88;5123693;27;11627;-83
2021/05/26 03:03:01;;;;;;;;;90.25;84.00;;;;;17.88;72.15;101686.59;5120937;27;11568;-81
2021/05/26 03:05:57;;;;;;;;;84.50;81.75;;;;;17.89;72.20;101679.81;5138353;27;11517;-82
2021/05/26 03:08:52;;;;;;;;;89.50;83.25;;;;;18.06;71.80;101681.47;5125832;27;11558;-83
2021/05/26 03:11:48;;;;;;;;;99.25;96.00;;;;;17.98;72.50;101682.44;5110930;28;11543;-83
2021/05/26 03:14:43;;;;;;;;;90.75;82.25;;;;;18.09;72.71;101685.53;5136136;27;11536;-83
2021/05/26 03:17:40;;;;;;;;;107.75;92.50;;;;;18.22;71.77;101692.69;5126480;27;11572;-83
2021/05/26 03:20:36;;;;;;;;;98.75;85.50;;;;;18.28;71.35;101691.25;5117489;28;11541;-82
2021/05/26 03:23:31;;;;;;;;;82.25;75.50;;;;;18.35;71.17;101688.66;5112918;28;11576;-82
2021/05/26 03:26:30;;;;;;;;;87.00;73.00;;;;;18.42;70.78;101699.25;5099687;28;11559;-83
2021/05/26 03:29:26;;;;;;;;;84.00;71.00;;;;;18.47;70.20;101704.56;5112872;28;11663;-82
2021/05/26 03:32:23;;;;;;;;;92.25;84.50;;;;;18.48;70.45;101695.81;5103453;28;11564;-83
2021/05/26 03:35:19;;;;;;;;;95.50;89.50;;;;;18.41;70.64;101700.41;5114600;28;11579;-82
2021/05/26 03:37:48;;;;;;;;;94.00;88.50;;;;;18.36;70.66;101698.69;5114134;28;11581;-81
2021/05/26 03:40:44;;;;;;;;;85.75;81.25;;;;;18.36;71.05;101704.28;5120713;27;11488;-81
2021/05/26 03:43:39;;;;;;;;;90.00;81.50;;;;;18.55;69.97;101703.56;5121243;27;11553;-80
2021/05/26 03:46:36;;;;;;;;;79.75;70.25;;;;;18.66;69.88;101707.50;5111849;28;11507;-81
2021/05/26 03:49:32;;;;;;;;;74.00;62.25;;;;;18.71;69.95;101700.78;5106212;27;11496;-82
2021/05/26 03:52:27;;;;;;;;;73.25;61.25;;;;;18.78;69.12;101693.38;5130928;27;11453;-81
2021/05/26 03:55:24;;;;;;;;;75.75;67.00;;;;;18.94;68.94;101701.81;5116163;27;11457;-82
2021/05/26 03:58:22;;;;;;;;;68.25;55.25;;;;;19.04;67.95;101711.63;5105356;28;11469;-81
2021/05/26 04:01:21;;;;;;;;;74.50;63.00;;;;;19.07;69.03;101717.31;5118967;27;11238;-81
2021/05/26 04:04:16;;;;;;;;;70.25;57.00;;;;;19.20;69.11;101708.81;5133543;27;11471;-81
2021/05/26 04:07:13;;;;;;;;;58.75;48.75;;;;;19.26;68.72;101713.75;5135817;27;11117;-81
2021/05/26 04:10:12;;;;;;;;;60.75;50.00;;;;;19.42;68.64;101714.53;5135177;27;10503;-81
2021/05/26 04:13:07;;;;;;;;;65.75;51.75;;;;;19.49;69.01;101713.88;5121127;27;10325;-81
2021/05/26 04:16:03;;;;;;;;;59.25;48.50;;;;;19.65;68.50;101716.66;5132894;27;10333;-82
2021/05/26 04:18:59;;;;;;;;;59.50;47.50;;;;;19.70;67.35;101722.78;5112879;28;10487;-82
2021/05/26 04:21:54;;;;;;;;;67.00;54.25;;;;;19.86;67.23;101727.50;5098650;28;10395;-85
2021/05/26 04:24:50;;;;;;;;;77.00;65.50;;;;;19.98;66.56;101730.19;5100414;28;11548;-79
2021/05/26 04:27:46;;;;;;;;;107.00;92.50;;;;;20.07;66.22;101730.75;5112562;28;11470;-79
2021/05/26 04:30:45;;;;;;;;;88.00;82.50;;;;;20.17;66.81;101743.41;5112222;28;11548;-79
2021/05/26 04:33:14;;;;;;;;;84.00;79.50;;;;;20.26;66.07;101741.97;5113723;28;11537;-79
2021/05/26 04:35:42;;;;;;;;;71.00;58.00;;;;;20.31;65.59;101738.03;5101184;28;11473;-78
2021/05/26 04:38:12;;;;;;;;;57.00;44.00;;;;;20.30;65.54;101736.41;5099258;28;10838;-79
2021/05/26 04:40:43;;;;;;;;;32.50;31.25;;;;;20.27;65.33;101740.78;5117840;28;9541;-78
2021/05/26 04:43:11;;;;;;;;;27.25;27.25;;;;;20.40;65.42;101749.06;5099823;28;8833;-79
2021/05/26 04:46:04;;;;;;;;;34.50;32.25;;;;;20.45;65.35;101751.59;5104247;28;9567;-79
2021/05/26 04:48:32;;;;;;;;;30.75;29.25;;;;;20.61;65.01;101743.03;5099496;28;8928;-79
2021/05/26 04:51:01;;;;;;;;;44.25;37.75;;;;;20.77;65.51;101747.34;5100661;28;8837;-79
2021/05/26 04:53:29;;;;;;;;;38.00;30.50;;;;;20.87;64.15;101750.75;5099536;28;8930;-79
2021/05/26 04:55:57;;;;;;;;;29.50;29.25;;;;;20.95;64.35;101747.66;5117684;28;8829;-79
2021/05/26 04:58:24;;;;;;;;;45.50;35.00;;;;;21.13;64.00;101747.94;5099929;28;8837;-78
2021/05/26 05:00:52;;;;;;;;;32.50;30.25;;;;;21.22;63.79;101750.47;5117701;28;8833;-78
2021/05/26 05:03:21;;;;;;;;;24.50;24.50;;;;;21.39;63.34;101752.78;5117129;28;9593;-78
2021/05/26 05:05:51;;;;;;;;;53.75;38.00;;;;;21.56;62.81;101748.63;5116878;28;9595;-79
2021/05/26 05:08:19;;;;;;;;;26.50;24.50;;;;;21.75;62.12;101742.84;5102699;27;8902;-78
2021/05/26 05:10:48;;;;;;;;;34.50;32.75;;;;;21.85;61.71;101745.00;5137092;27;8839;-78
2021/05/26 05:13:44;;;;;;;;;25.00;25.00;;;;;22.01;61.53;101741.16;5118691;27;8950;-79
2021/05/26 05:16:40;;;;;;;;;22.75;22.75;;;;;22.24;60.89;101752.31;5133888;27;8827;-79
2021/05/26 05:19:36;;;;;;;;;22.25;22.25;;;;;22.35;60.27;101748.44;5136558;27;8898;-80
2021/05/26 05:22:32;;;;;;;;;25.25;25.25;;;;;22.39;60.20;101754.91;5135585;27;8827;-80
2021/05/26 05:25:31;;;;;;;;;38.25;34.50;;;;;22.63;60.27;101758.38;5134152;27;8854;-80
2021/05/26 05:28:01;;;;;;;;;27.50;26.50;;;;;22.88;59.70;101759.44;5099783;27;8944;-80
2021/05/26 05:30:59;;;;;;;;;24.00;24.00;;;;;22.94;59.12;101757.09;5135688;27;8907;-81
2021/05/26 05:33:55;;;;;;;;;21.75;21.75;;;;;22.99;59.72;101753.88;5136400;27;8815;-79
2021/05/26 05:36:50;;;;;;;;;24.50;24.50;;;;;23.08;58.35;101743.09;5135671;27;8885;-80
2021/05/26 05:39:46;;;;;;;;;24.75;24.75;;;;;23.28;57.85;101749.28;5135395;27;8843;-82
2021/05/26 05:42:41;;;;;;;;;23.25;23.25;;;;;23.44;57.45;101757.44;5121789;27;8831;-79
2021/05/26 05:45:40;;;;;;;;;35.00;32.50;;;;;23.68;57.43;101756.00;5136006;27;8872;-80
2021/05/26 05:48:38;;;;;;;;;17.25;17.25;;;;;23.75;56.22;101753.22;5135524;27;8843;-81
2021/05/26 05:51:35;;;;;;;;;26.75;26.75;;;;;24.04;56.33;101742.84;5121497;27;8835;-81
2021/05/26 05:54:04;;;;;;;;;25.50;25.50;;;;;23.94;55.00;101744.44;5136332;27;8839;-79
2021/05/26 05:56:33;;;;;;;;;18.25;18.25;;;;;24.20;54.25;101753.78;5136471;27;9607;-80
2021/05/26 05:59:01;;;;;;;;;18.25;18.25;;;;;24.32;54.00;101750.59;5118295;27;8918;-80
2021/05/26 06:01:30;;;;;;;;;15.20;13.80;;;;;24.24;52.60;101763.91;5139792;27;8843;-81
2021/05/26 06:04:00;;;;;;;;;16.60;16.60;;;;;24.49;53.20;101747.03;5123239;27;8942;-82
2021/05/26 06:06:28;;;;;;;;;22.50;22.50;;;;;24.57;54.05;101757.16;5142730;27;8850;-82
2021/05/26 06:08:56;;;;;;;;;17.80;17.80;;;;;24.84;53.36;101756.75;5119422;27;8815;-76
2021/05/26 06:11:24;;;;;;;;;24.75;23.75;;;;;25.13;53.05;101763.25;5117386;27;8843;-76
2021/05/26 06:14:20;;;;;;;;;21.80;21.60;;;;;25.15;53.38;101767.31;5120096;27;8866;-75
2021/05/26 06:17:16;;;;;;;;;21.80;21.80;;;;;25.39;53.01;101770.53;5131291;27;8818;-76
2021/05/26 06:20:15;;;;;;;;;19.60;19.60;;;;;25.51;51.84;101764.41;5132963;27;8828;-76
2021/05/26 06:23:11;;;;;;;;;23.20;22.60;;;;;25.88;51.73;101769.59;5133059;27;8827;-76
2021/05/26 06:26:06;;;;;;;;;21.40;21.00;;;;;25.94;51.22;101765.13;5119184;27;8842;-76
2021/05/26 06:29:05;;;;;;;;;18.60;18.60;;;;;25.87;51.18;101768.00;5131673;27;8934;-75
2021/05/26 06:32:03;;;;;;;;;18.75;18.75;;;;;25.67;50.67;101761.94;5131544;27;8864;-76
2021/05/26 06:34:34;;;;;;;;;16.60;16.40;;;;;25.68;49.77;101762.75;5134274;27;8862;-76
2021/05/26 06:37:31;;;;;;;;;15.20;15.20;;;;;25.11;51.22;101762.88;5132185;27;8862;-76
2021/05/26 06:40:30;;;;;;;;;19.20;18.00;;;;;25.23;50.73;101768.94;5131752;27;8823;-77
2021/05/26 06:43:25;;;;;;;;;18.60;18.60;;;;;25.15;51.93;101769.31;5118500;27;8812;-76
2021/05/26 06:46:21;;;;;;;;;18.00;18.00;;;;;25.39;51.13;101767.69;5131193;27;8835;-76
2021/05/26 06:49:17;;;;;;;;;20.80;20.80;;;;;25.80;50.46;101768.00;5133511;27;8842;-76
2021/05/26 06:52:13;;;;;;;;;17.40;17.40;;;;;25.82;50.28;101771.25;5132578;27;8888;-75
2021/05/26 06:55:09;;;;;;;;;19.80;19.80;;;;;25.82;50.67;101762.72;5131972;27;8823;-76
2021/05/26 06:58:06;;;;;;;;;19.40;19.00;;;;;25.95;50.32;101760.28;5131018;27;8804;-76
2021/05/26 07:01:02;;;;;;;;;17.00;17.00;;;;;26.34;49.41;101760.06;5118862;27;8896;-74
2021/05/26 07:03:31;;;;;;;;;17.40;17.40;;;;;26.18;49.32;101768.25;5131501;27;8835;-75
2021/05/26 07:05:59;;;;;;;;;17.40;17.40;;;;;26.20;47.89;101758.13;5096803;27;8831;-75
2021/05/26 07:08:54;;;;;;;;;17.80;17.80;;;;;26.42;49.07;101755.19;5131858;27;8827;-75
2021/05/26 07:11:38;;;;;;;;;19.20;19.20;;;;;26.24;48.50;101764.59;5131680;27;8831;-76
2021/05/26 07:14:08;;;;;;;;;17.00;17.00;;;;;26.14;48.63;101756.13;5115440;27;9549;-75
2021/05/26 07:16:38;;;;;;;;;18.20;18.20;;;;;26.21;48.48;101751.22;5133322;27;8840;-75
2021/05/26 07:19:07;;;;;;;;;16.00;16.00;;;;;26.64;47.77;101747.34;5115585;27;8942;-77
2021/05/26 07:21:41;;;;;;;;;16.60;16.60;;;;;26.51;48.22;101752.69;5133405;27;8831;-76
2021/05/26 07:24:38;;;;;;;;;16.80;16.80;;;;;26.30;48.47;101743.09;5118827;27;8819;-76
2021/05/26 07:27:34;;;;;;;;;15.40;15.40;;;;;26.66;47.84;101748.53;5130841;27;9564;-77
2021/05/26 07:30:30;;;;;;;;;18.40;18.40;;;;;26.85;47.44;101738.69;5116222;27;8823;-75
2021/05/26 07:33:26;;;;;;;;;18.00;18.00;;;;;26.30;48.35;101742.25;5131867;27;8965;-77
2021/05/26 07:36:21;;;;;;;;;19.60;19.00;;;;;26.24;48.78;101741.91;5117669;27;8839;-76
2021/05/26 07:39:20;;;;;;;;;20.20;20.20;;;;;26.40;48.39;101743.47;5131916;27;9568;-76
2021/05/26 07:42:03;;;;;;;;;19.00;19.00;;;;;26.45;48.71;101740.97;5114331;27;8815;-74
2021/05/26 07:44:59;;;;;;;;;19.00;19.00;;;;;26.93;47.41;101736.59;5130634;27;8842;-75
2021/05/26 07:47:55;;;;;;;;;19.80;19.60;;;;;27.11;47.32;101734.41;5131645;27;8843;-76
2021/05/26 07:50:51;;;;;;;;;19.00;19.00;;;;;27.15;47.16;101733.16;5112526;28;8938;-77
2021/05/26 07:53:47;;;;;;;;;18.40;18.40;;;;;27.30;47.15;101733.03;5098728;28;9632;-76
2021/05/26 07:56:45;;;;;;;;;16.00;16.00;;;;;27.10;47.70;101742.13;5114010;28;8840;-77
2021/05/26 07:59:45;;;;;;;;;17.00;17.00;;;;;27.05;47.54;101734.03;5133923;27;8834;-76
2021/05/26 08:02:40;;;;;;;;;16.60;16.60;;;;;26.53;48.59;101725.56;5133081;27;8862;-76
2021/05/26 08:05:36;;;;;;;;;18.80;18.80;;;;;27.11;48.09;101731.56;5132784;27;8815;-76
2021/05/26 08:08:34;;;;;;;;;24.60;21.00;;;;;27.20;47.54;101740.41;5135576;27;9594;-76
2021/05/26 08:11:31;;;;;;;;;19.20;19.20;;;;;27.13;47.61;101734.78;5137494;27;8846;-76
2021/05/26 08:14:27;;;;;;;;;22.20;22.20;;;;;27.37;47.42;101733.75;5137235;27;8843;-76
2021/05/26 08:17:25;;;;;;;;;16.60;16.60;;;;;27.74;46.23;101734.97;5137465;27;8816;-76
2021/05/26 08:20:22;;;;;;;;;16.00;16.00;;;;;27.32;46.85;101736.25;5124253;27;8958;-76
2021/05/26 08:23:18;;;;;;;;;15.00;15.00;;;;;27.62;46.05;101733.47;5123411;27;8847;-77
2021/05/26 08:26:21;;;;;;;;;16.80;16.80;;;;;27.83;45.43;101723.88;5136894;27;8898;-75
2021/05/26 08:29:18;;;;;;;;;14.20;14.20;;;;;27.90;43.67;101729.47;5136427;27;8875;-76
2021/05/26 08:32:13;;;;;;;;;17.80;17.80;;;;;28.38;44.33;101724.81;5121984;27;8825;-77
2021/05/26 08:35:11;;;;;;;;;16.20;16.20;;;;;27.80;43.49;101736.13;5116233;28;8825;-76
2021/05/26 08:38:06;;;;;;;;;6.20;6.20;;;;;27.67;44.04;101726.53;5116267;28;8951;-76
2021/05/26 08:41:06;;;;;;;;;17.40;17.40;;;;;28.01;44.45;101731.41;5117014;28;8825;-77
2021/05/26 08:44:02;;;;;;;;;17.80;17.80;;;;;28.08;43.83;101726.41;5116826;28;9539;-76
2021/05/26 08:47:01;;;;;;;;;18.00;18.00;;;;;28.27;43.67;101722.88;5110884;27;8803;-77
2021/05/26 08:49:57;;;;;;;;;16.00;16.00;;;;;28.57;43.01;101717.59;5119448;28;8926;-77
2021/05/26 08:52:53;;;;;;;;;19.60;18.00;;;;;29.03;42.54;101723.34;5110931;27;8841;-77
2021/05/26 08:55:48;;;;;;;;;15.80;15.80;;;;;28.46;42.55;101714.94;5136748;27;8912;-79
2021/05/26 08:58:44;;;;;;;;;14.40;14.40;;;;;27.88;43.17;101722.63;5136667;27;8803;-75
2021/05/26 09:01:47;;;;;;;;;15.60;15.60;;;;;27.62;43.54;101726.97;5136345;27;8865;-75
2021/05/26 09:04:47;;;;;;;;;13.00;13.00;;;;;27.93;43.36;101719.31;5136318;27;8838;-76
2021/05/26 09:07:32;;;;;;;;;13.00;13.00;;;;;28.32;42.02;101713.09;5136615;27;8839;-76
2021/05/26 09:10:29;;;;;;;;;14.60;14.60;;;;;28.51;41.88;101714.44;5136466;27;8835;-78
2021/05/26 09:13:39;;;;;;;;;13.20;13.00;;;;;28.13;41.74;101716.59;5136314;27;8945;-76
2021/05/26 09:16:34;;;;;;;;;13.80;13.80;;;;;28.45;41.69;101704.78;5122671;27;9568;-75
2021/05/26 09:19:30;;;;;;;;;14.40;14.40;;;;;28.46;41.51;101707.19;5134911;27;9807;-76
2021/05/26 09:22:28;;;;;;;;;11.20;11.20;;;;;28.22;41.85;101702.66;5136239;27;9621;-75
2021/05/26 09:25:24;;;;;;;;;13.20;13.20;;;;;28.67;39.48;101714.56;5122204;27;8803;-76
2021/05/26 09:28:21;;;;;;;;;13.40;13.20;;;;;28.40;39.57;101713.81;5118721;27;8860;-74
2021/05/26 09:31:01;;;;;;;;;14.00;14.00;;;;;28.62;40.44;101702.91;5137184;27;8831;-76
2021/05/26 09:33:44;;;;;;;;;11.80;11.80;;;;;29.00;39.23;101704.28;5136991;27;9613;-77
2021/05/26 09:36:18;;;;;;;;;14.40;14.40;;;;;29.16;38.74;101709.28;5136642;27;8839;-76
2021/05/26 09:39:05;;;;;;;;;11.20;11.20;;;;;29.28;37.74;101714.34;5136731;27;8907;-76
2021/05/26 09:41:36;;;;;;;;;11.60;11.60;;;;;29.13;37.69;101710.13;5137311;27;8866;-75
2021/05/26 09:44:10;;;;;;;;;9.80;9.80;;;;;29.11;36.12;101712.63;5119027;27;8827;-76
2021/05/26 09:46:40;;;;;;;;;10.20;10.20;;;;;29.23;35.66;101714.84;5118762;27;8872;-76
2021/05/26 09:49:16;;;;;;;;;6.40;6.40;;;;;28.78;34.42;101706.66;5136176;27;8834;-75
2021/05/26 09:51:45;;;;;;;;;8.20;8.20;;;;;28.29;35.21;101708.22;5136118;27;9564;-74
2021/05/26 09:54:22;;;;;;;;;7.20;7.20;;;;;28.86;31.97;101703.69;5136038;27;9630;-75
2021/05/26 09:57:04;;;;;;;;;5.60;5.60;;;;;28.85;32.35;101696.41;5117686;27;8990;-76
2021/05/26 09:59:34;;;;;;;;;4.80;4.80;;;;;28.98;32.86;101700.25;5134655;27;8855;-75
2021/05/26 10:02:07;;;;;;;;;6.60;6.20;;;;;28.59;31.09;101698.03;5118676;27;9618;-77
2021/05/26 10:04:41;;;;;;;;;7.00;7.00;;;;;29.22;32.18;101701.06;5117819;27;8920;-76
2021/05/26 10:07:12;;;;;;;;;5.80;5.80;;;;;28.99;32.24;101701.88;5118214;27;8851;-75
2021/05/26 10:09:45;;;;;;;;;7.60;7.60;;;;;29.39;33.63;101701.94;5135971;27;8851;-78
2021/05/26 10:12:15;;;;;;;;;9.20;9.20;;;;;28.78;33.68;101689.59;5136183;27;8982;-78
2021/05/26 10:14:48;;;;;;;;;6.20;6.20;;;;;28.98;34.36;101701.06;5118242;27;8873;-77
2021/05/26 10:17:23;;;;;;;;;6.80;6.80;;;;;28.82;33.63;101695.22;5135781;27;8873;-78
2021/05/26 10:19:53;;;;;;;;;8.40;8.40;;;;;29.40;33.29;101700.69;5117728;27;8878;-75
2021/05/26 10:22:38;;;;;;;;;7.60;7.60;;;;;29.68;32.46;101697.31;5120096;27;8835;-76
2021/05/26 10:25:41;;;;;;;;;6.00;6.00;;;;;29.38;31.38;101692.59;5134553;27;8815;-78
2021/05/26 10:28:40;;;;;;;;;9.00;9.00;;;;;29.56;32.05;101680.84;5132898;27;9632;-77
2021/05/26 10:31:40;;;;;;;;;3.40;3.40;;;;;29.03;32.12;101686.31;5117401;28;8866;-78
2021/05/26 10:34:41;;;;;;;;;8.00;8.00;;;;;29.25;31.94;101680.22;5120627;27;8831;-75
2021/05/26 10:37:40;;;;;;;;;5.40;5.40;;;;;29.63;31.11;101687.22;5134827;27;8846;-75
2021/05/26 10:40:29;;;;;;;;;7.80;7.80;;;;;29.77;31.31;101679.59;5134367;27;8867;-75
2021/05/26 10:43:29;;;;;;;;;6.00;6.00;;;;;30.37;30.75;101688.88;5134394;27;8838;-76
2021/05/26 10:46:38;;;;;;;;;7.00;7.00;;;;;30.76;30.68;101682.19;5120579;27;8848;-76
2021/05/26 10:49:49;;;;;;;;;8.40;8.40;;;;;30.60;29.75;101679.34;5124016;27;9669;-76
2021/05/26 10:52:55;;;;;;;;;3.00;3.00;;;;;29.86;30.38;101680.63;5100978;27;9027;-76
2021/05/26 10:55:57;;;;;;;;;6.80;6.80;;;;;30.32;31.90;101681.63;5133909;27;8815;-75
2021/05/26 10:59:13;;;;;;;;;8.80;8.80;;;;;30.59;32.94;101674.84;5133801;27;8869;-75
2021/05/26 11:02:09;;;;;;;;;10.00;10.00;;;;;30.45;33.32;101673.97;5102875;28;8863;-76
2021/05/26 11:05:33;;;;;;;;;9.40;9.40;;;;;30.61;32.90;101664.59;5126200;27;9552;-75
2021/05/26 11:08:35;;;;;;;;;11.40;10.20;;;;;30.99;30.50;101679.13;5112517;28;8848;-76
2021/05/26 11:11:34;;;;;;;;;6.00;6.00;;;;;30.76;29.85;101667.13;5113060;28;8853;-74
2021/05/26 11:14:32;;;;;;;;;7.00;7.00;;;;;30.80;30.86;101668.63;5113775;28;8833;-74
2021/05/26 11:17:31;;;;;;;;;5.60;5.60;;;;;29.56;30.30;101663.75;5133318;27;8915;-75
2021/05/26 11:20:28;;;;;;;;;7.00;7.00;;;;;29.75;29.13;101673.53;5120079;27;8872;-75
2021/05/26 11:23:23;;;;;;;;;6.60;6.00;;;;;29.25;30.04;101660.28;5119314;27;8879;-76
2021/05/26 11:26:20;;;;;;;;;4.20;4.20;;;;;29.00;29.55;101667.28;5120176;27;8850;-77
2021/05/26 11:29:26;;;;;;;;;4.80;4.80;;;;;29.27;30.55;101652.91;5118073;27;8847;-78
2021/05/26 11:32:06;;;;;;;;;6.80;6.80;;;;;29.27;30.13;101649.25;5132693;27;8824;-76
2021/05/26 11:34:45;;;;;;;;;7.40;7.40;;;;;29.92;30.47;101663.00;5130569;27;8943;-74
2021/05/26 11:37:41;;;;;;;;;6.40;6.40;;;;;30.16;31.17;101655.94;5128956;27;8870;-75
2021/05/26 11:40:18;;;;;;;;;8.60;8.60;;;;;30.10;31.21;101660.56;5132534;27;8835;-74
2021/05/26 11:43:02;;;;;;;;;7.80;7.80;;;;;30.27;30.67;101642.19;5103129;27;8839;-76
2021/05/26 11:45:44;;;;;;;;;6.00;6.00;;;;;30.27;30.29;101641.41;5119301;27;8885;-75
2021/05/26 11:48:19;;;;;;;;;4.20;4.20;;;;;30.55;30.58;101637.84;5134874;27;8973;-75
2021/05/26 11:51:25;;;;;;;;;8.80;7.60;;;;;30.88;29.48;101641.47;5134266;27;8843;-74
2021/05/26 11:54:24;;;;;;;;;5.80;5.80;;;;;30.49;30.05;101633.91;5132380;27;8831;-74
2021/05/26 11:57:03;;;;;;;;;8.40;8.40;;;;;30.43;28.87;101632.84;5138149;27;8855;-76
2021/05/26 12:00:00;;;;;;;;;8.00;8.00;;;;;30.71;29.81;101634.19;5141652;27;8885;-75
2021/05/26 12:03:05;;;;;;;;;8.80;8.80;;;;;30.40;31.09;101630.88;5119527;27;8933;-75
2021/05/26 12:06:01;;;;;;;;;10.00;10.00;;;;;30.41;30.95;101623.94;5133215;27;8890;-75
2021/05/26 12:08:57;;;;;;;;;7.20;7.20;;;;;30.08;31.49;101623.09;5133789;27;8838;-76
2021/05/26 12:11:53;;;;;;;;;7.80;7.80;;;;;30.74;29.89;101627.56;5132424;27;8882;-75
2021/05/26 12:14:53;;;;;;;;;8.60;8.60;;;;;31.16;29.31;101627.66;5135815;27;9716;-73
2021/05/26 12:17:23;;;;;;;;;10.40;10.40;;;;;31.10;29.45;101624.56;5137140;27;8863;-75
2021/05/26 12:19:54;;;;;;;;;9.40;9.40;;;;;31.60;30.40;101611.72;5136660;27;8843;-75
2021/05/26 12:22:26;;;;;;;;;9.60;9.60;;;;;31.50;30.65;101613.59;5137188;27;8847;-74
2021/05/26 12:25:03;;;;;;;;;10.40;10.40;;;;;31.51;29.83;101620.94;5138849;27;8847;-75
2021/05/26 12:27:47;;;;;;;;;7.80;7.80;;;;;31.11;29.86;101623.28;5103237;27;8843;-75
2021/05/26 12:30:28;;;;;;;;;9.20;9.20;;;;;30.63;30.60;101609.91;5101257;28;8894;-75
2021/05/26 12:33:20;;;;;;;;;9.80;9.80;;;;;31.25;29.48;101614.34;5098892;28;8867;-75
2021/05/26 12:36:25;;;;;;;;;9.00;9.00;;;;;31.92;29.05;101615.66;5100825;28;8946;-74
2021/05/26 12:38:59;;;;;;;;;9.00;9.00;;;;;31.85;29.50;101613.00;5096560;27;8890;-74
2021/05/26 12:41:47;;;;;;;;;11.80;11.80;;;;;32.19;28.46;101610.25;5125202;27;8835;-74
2021/05/26 12:44:17;;;;;;;;;8.20;8.20;;;;;32.34;28.41;101605.69;5135979;27;8851;-76
2021/05/26 12:47:14;;;;;;;;;7.20;7.20;;;;;31.04;29.22;101606.34;5117229;27;8854;-74
2021/05/26 12:49:54;;;;;;;;;9.80;9.80;;;;;31.62;29.09;101596.94;5133260;27;8815;-76
2021/05/26 12:52:30;;;;;;;;;10.00;10.00;;;;;31.98;28.53;101603.19;5097860;27;8858;-75
2021/05/26 12:55:14;;;;;;;;;10.20;10.20;;;;;32.29;28.90;101596.84;5124029;27;8876;-75
2021/05/26 12:57:50;;;;;;;;;11.00;11.00;;;;;32.24;28.63;101592.50;5117240;27;8847;-74
2021/05/26 13:00:45;;;;;;;;;10.00;10.00;;;;;31.24;30.33;101589.09;5135513;27;8945;-76
2021/05/26 13:03:49;;;;;;;;;9.80;9.80;;;;;31.29;30.30;101590.59;5109889;28;8921;-75